00:32
Airports
History
Links
Donate
Help keep this website running!
PayPal
Bitcoin
Information on this page is community maintained and may be outdated or inaccurate and is intended for reference only or PC simulator navigating.
Always use approved charts for navigating.
ENMH
Mehamn
Mehamn (ENMH)
Finnmark, Norway (9770)
(C)
Lat/Lng:71° 1' 46.26" N / 27° 49' 35.88" E
71.029518 / 27.826632
Elevation:39'ft 12mMSL
ID / ICAO:ENMH
Runways:1
Longest:(36-18) 885.1m 2,904ft Asphalt
Controlled:Yes
Distance To
Airport ID:
Nearby VORs <50NM
Nearby NDBs
METARUpdated 07-24-17 22:50 GMT
Altimeter: 30.09
Visibility: 6.2 statute miles
Wind: 0 knots (000°)
Temp: 9°c 48°f
Humidity: 93.4%

METAR: ENMH 242250Z 00000KT CAVOK 09/08 Q1019

(Powered by phpweather)
Runway 36 / 18
Dimensions:885.1 x 29.9m 2904' x 98'ft
Surface:Asphalt
Edge Lights:Medium intensity
Runway 36 [A]Runway 18 [B]
Heading:003°TH 183°TH
Lat:
Lng:
71° 1' 32.04"N
27° 49' 33.12"E
71° 2' 0.49"N
27° 49' 38.63"E
ALS:RAILRAIL
User Notes and Comments
Google Map
Nearby Airports
(C) Berlevaag 29.3 NM
ENBV ESE 111°
(C) Honningsvaag Valan 41.4 NM
ENHV (WX) W 268°
(C) BATSFJORD 51.8 NM
ENBS SE 124°
(C) Vadso 81.2 NM
ENVD SE 145°
(C) SVARTNES 87.0 NM
ENSS ESE 122°
(C) BANAK 93.3 NM
ENNA (WX) SW 224°
(C) Hammerfest 97.3 NM
ENHF (WX) WSW 255°
VFR Chart
Flight Planning at SkyVector.com